createdAt,value
2022-08-29T00:01:05.686Z,19.70
2022-08-29T00:03:33.540Z,19.70
2022-08-29T00:06:01.452Z,19.70
2022-08-29T00:08:29.273Z,19.70
2022-08-29T00:10:57.063Z,19.70
2022-08-29T00:13:25.130Z,19.70
2022-08-29T00:15:52.912Z,19.70
2022-08-29T00:18:21.029Z,19.70
2022-08-29T00:20:48.935Z,19.70
2022-08-29T00:23:17.558Z,19.60
2022-08-29T00:25:45.255Z,19.60
2022-08-29T00:28:13.596Z,19.50
2022-08-29T00:30:41.427Z,19.50
2022-08-29T00:33:09.987Z,19.50
2022-08-29T00:35:40.725Z,19.60
2022-08-29T00:38:11.207Z,19.50
2022-08-29T00:40:53.072Z,19.50
2022-08-29T00:43:28.264Z,19.40
2022-08-29T00:46:11.095Z,19.40
2022-08-29T00:48:40.182Z,19.40
2022-08-29T00:51:15.146Z,19.40
2022-08-29T00:53:45.810Z,19.30
2022-08-29T00:56:15.926Z,19.30
2022-08-29T00:59:07.140Z,19.30
2022-08-29T01:01:35.418Z,19.30
2022-08-29T01:04:03.378Z,19.30
2022-08-29T01:06:35.376Z,19.20
2022-08-29T01:09:04.497Z,19.30
2022-08-29T01:11:51.466Z,19.30
2022-08-29T01:14:22.380Z,19.20
2022-08-29T01:16:53.263Z,19.20
2022-08-29T01:19:43.371Z,19.20
2022-08-29T01:22:37.185Z,19.20
2022-08-29T01:25:15.275Z,19.20
2022-08-29T01:27:47.349Z,19.20
2022-08-29T01:30:15.522Z,19.20
2022-08-29T01:32:43.502Z,19.10
2022-08-29T01:35:12.098Z,19.20
2022-08-29T01:37:44.446Z,19.10
2022-08-29T01:40:13.787Z,19.00
2022-08-29T01:42:41.692Z,19.00
2022-08-29T01:45:10.291Z,18.90
2022-08-29T01:47:39.296Z,19.00
2022-08-29T01:50:13.733Z,18.90
2022-08-29T01:52:43.039Z,18.90
2022-08-29T01:55:10.881Z,18.80
2022-08-29T01:57:39.970Z,18.80
2022-08-29T02:00:10.657Z,18.80
2022-08-29T02:02:39.461Z,18.80
2022-08-29T02:05:09.808Z,18.80
2022-08-29T02:07:37.624Z,18.90
2022-08-29T02:10:07.348Z,18.90
2022-08-29T02:12:36.164Z,19.00
2022-08-29T02:15:04.526Z,19.00
2022-08-29T02:17:32.158Z,18.90
2022-08-29T02:20:04.599Z,18.80
2022-08-29T02:22:39.923Z,18.80
2022-08-29T02:25:29.060Z,18.70
2022-08-29T02:27:57.981Z,18.60
2022-08-29T02:30:25.958Z,18.70
2022-08-29T02:32:54.395Z,18.60
2022-08-29T02:35:22.926Z,18.50
2022-08-29T02:37:52.910Z,18.50
2022-08-29T02:40:26.123Z,18.50
2022-08-29T02:43:01.674Z,18.50
2022-08-29T02:45:29.421Z,18.50
2022-08-29T02:47:57.271Z,18.50
2022-08-29T02:50:25.900Z,18.60
2022-08-29T02:52:54.429Z,18.60
2022-08-29T02:55:23.347Z,18.60
2022-08-29T02:57:52.877Z,18.50
2022-08-29T03:00:25.770Z,18.60
2022-08-29T03:02:55.414Z,18.60
2022-08-29T03:05:27.817Z,18.60
2022-08-29T03:07:57.118Z,18.60
2022-08-29T03:10:25.382Z,18.50
2022-08-29T03:12:53.325Z,18.50
2022-08-29T03:15:21.931Z,18.60
2022-08-29T03:17:50.774Z,18.60
2022-08-29T03:20:21.314Z,18.50
2022-08-29T03:22:49.877Z,18.50
2022-08-29T03:25:17.953Z,18.50
2022-08-29T03:27:45.728Z,18.60
2022-08-29T03:30:15.764Z,18.50
2022-08-29T03:32:43.643Z,18.50
2022-08-29T03:35:14.008Z,18.50
2022-08-29T03:37:41.974Z,18.50
2022-08-29T03:40:10.685Z,18.50
2022-08-29T03:42:38.792Z,18.40
2022-08-29T03:45:09.126Z,18.40
2022-08-29T03:47:36.972Z,18.40
2022-08-29T03:50:05.211Z,18.30
2022-08-29T03:52:32.959Z,18.30
2022-08-29T03:55:01.016Z,18.20
2022-08-29T03:57:31.348Z,18.20
2022-08-29T03:59:59.783Z,18.20
2022-08-29T04:02:27.908Z,18.20
2022-08-29T04:05:08.457Z,18.20
2022-08-29T04:07:42.594Z,18.20
2022-08-29T04:10:12.789Z,18.30
2022-08-29T04:12:40.535Z,18.30
2022-08-29T04:15:08.878Z,18.30
2022-08-29T04:17:37.836Z,18.40
2022-08-29T04:20:25.326Z,18.30
2022-08-29T04:22:55.040Z,18.30
2022-08-29T04:25:26.637Z,18.30
2022-08-29T04:27:56.594Z,18.30
2022-08-29T04:30:26.079Z,18.30
2022-08-29T04:32:57.463Z,18.30
2022-08-29T04:35:25.655Z,18.30
2022-08-29T04:37:53.597Z,18.30
2022-08-29T04:40:23.404Z,18.30
2022-08-29T04:42:51.604Z,18.30
2022-08-29T04:45:21.754Z,18.30
2022-08-29T04:47:49.776Z,18.30
2022-08-29T04:50:20.519Z,18.30
2022-08-29T04:52:49.948Z,18.40
2022-08-29T04:55:21.632Z,18.30
2022-08-29T04:57:52.568Z,18.30
2022-08-29T05:00:23.735Z,18.30
2022-08-29T05:02:51.609Z,18.30
2022-08-29T05:05:19.351Z,18.40
2022-08-29T05:07:47.347Z,18.40
2022-08-29T05:10:20.742Z,18.40
2022-08-29T05:12:48.757Z,18.40
2022-08-29T05:15:17.214Z,18.40
2022-08-29T05:17:45.763Z,18.40
2022-08-29T05:20:14.167Z,18.40
2022-08-29T05:22:42.516Z,18.30
2022-08-29T05:25:17.394Z,18.40
2022-08-29T05:27:46.982Z,18.40
2022-08-29T05:30:25.092Z,18.40
2022-08-29T05:33:04.543Z,18.50
2022-08-29T05:35:33.495Z,18.50
2022-08-29T05:38:08.541Z,18.50
2022-08-29T05:40:37.625Z,18.50
2022-08-29T05:43:06.847Z,18.50
2022-08-29T05:45:34.554Z,18.50
2022-08-29T05:48:07.180Z,18.50
2022-08-29T05:50:42.405Z,18.50
2022-08-29T05:53:12.350Z,18.60
2022-08-29T05:55:42.077Z,18.60
2022-08-29T05:58:10.490Z,18.70
2022-08-29T06:00:46.560Z,18.70
2022-08-29T06:03:15.400Z,18.80
2022-08-29T06:05:43.154Z,18.90
2022-08-29T06:08:11.193Z,19.00
2022-08-29T06:10:45.316Z,19.10
2022-08-29T06:13:14.574Z,19.10
2022-08-29T06:15:46.119Z,19.20
2022-08-29T06:18:14.085Z,19.40
2022-08-29T06:20:42.461Z,19.50
2022-08-29T06:23:10.250Z,19.70
2022-08-29T06:25:39.484Z,19.80
2022-08-29T06:28:08.521Z,19.80
2022-08-29T06:30:36.314Z,19.90
2022-08-29T06:33:04.263Z,19.90
2022-08-29T06:35:31.854Z,20.10
2022-08-29T06:37:59.616Z,20.10
2022-08-29T06:40:27.673Z,20.20
2022-08-29T06:42:55.600Z,20.30
2022-08-29T06:45:23.366Z,20.30
2022-08-29T06:47:51.161Z,20.30
2022-08-29T06:50:19.053Z,20.40
2022-08-29T06:52:47.125Z,20.40
2022-08-29T06:55:15.001Z,20.40
2022-08-29T06:57:46.269Z,20.50
2022-08-29T07:00:22.171Z,20.50
2022-08-29T07:02:52.819Z,20.60
2022-08-29T07:05:22.536Z,20.60
2022-08-29T07:07:51.554Z,20.60
2022-08-29T07:10:22.818Z,20.70
2022-08-29T07:12:54.467Z,20.80
2022-08-29T07:15:29.239Z,20.90
2022-08-29T07:18:00.176Z,21.00
2022-08-29T07:20:44.722Z,21.00
2022-08-29T07:23:26.049Z,21.10
2022-08-29T07:25:57.405Z,21.10
2022-08-29T07:28:35.470Z,21.10
2022-08-29T07:31:12.057Z,21.20
2022-08-29T07:34:00.732Z,21.30
2022-08-29T07:36:39.786Z,21.40
2022-08-29T07:39:17.301Z,21.30
2022-08-29T07:41:51.797Z,21.50
2022-08-29T07:44:22.077Z,21.60
2022-08-29T07:47:05.333Z,21.60
2022-08-29T07:49:42.584Z,21.60
2022-08-29T07:52:25.645Z,21.70
2022-08-29T07:55:00.403Z,21.80
2022-08-29T07:57:32.764Z,21.80
2022-08-29T08:00:10.151Z,22.00
2022-08-29T08:02:45.899Z,22.20
2022-08-29T08:05:20.547Z,22.20
2022-08-29T08:22:45.881Z,22.40
2022-08-29T08:25:14.148Z,22.70
2022-08-29T08:27:43.581Z,22.50
2022-08-29T08:30:12.113Z,22.50
2022-08-29T08:32:43.090Z,22.60
2022-08-29T08:35:14.331Z,22.60
2022-08-29T08:37:42.072Z,22.70
2022-08-29T08:40:16.813Z,22.80
2022-08-29T08:42:46.154Z,22.90
2022-08-29T08:45:16.967Z,23.00
2022-08-29T08:48:03.809Z,23.10
2022-08-29T08:50:42.658Z,23.00
2022-08-29T08:53:42.964Z,23.00
2022-08-29T08:56:31.285Z,23.00
2022-08-29T08:59:03.388Z,23.00
2022-08-29T09:01:34.507Z,23.20
2022-08-29T09:04:20.990Z,23.10
2022-08-29T09:06:57.919Z,23.10
2022-08-29T09:09:44.800Z,23.10
2022-08-29T09:12:45.665Z,23.20
2022-08-29T09:15:21.169Z,23.10
2022-08-29T09:18:13.554Z,23.20
2022-08-29T09:20:42.851Z,23.10
2022-08-29T09:23:31.650Z,23.20
2022-08-29T09:25:59.895Z,23.20
2022-08-29T09:28:27.404Z,23.30
2022-08-29T09:31:26.346Z,23.20
2022-08-29T09:34:00.210Z,23.20
2022-08-29T09:36:54.444Z,23.20
2022-08-29T09:39:31.589Z,23.10
2022-08-29T09:42:19.564Z,23.10
2022-08-29T09:44:55.306Z,23.10
2022-08-29T09:47:24.391Z,23.20
2022-08-29T09:50:02.940Z,23.40
2022-08-29T09:52:30.939Z,23.50
2022-08-29T09:55:00.859Z,23.70
2022-08-29T09:57:29.873Z,23.70
2022-08-29T10:00:14.991Z,23.70
2022-08-29T10:02:52.345Z,23.80
2022-08-29T10:05:41.842Z,23.90
2022-08-29T10:08:30.015Z,24.00
2022-08-29T10:11:03.768Z,24.00
2022-08-29T10:13:43.178Z,24.10
2022-08-29T10:16:17.864Z,24.20
2022-08-29T10:18:53.505Z,24.30
2022-08-29T10:21:49.122Z,24.50
2022-08-29T10:24:18.921Z,24.60
2022-08-29T10:26:56.433Z,24.60
2022-08-29T10:29:42.790Z,24.70
2022-08-29T10:32:38.221Z,24.80
2022-08-29T10:35:19.862Z,24.90
2022-08-29T10:38:10.278Z,24.90
2022-08-29T10:40:43.216Z,25.00
2022-08-29T10:43:39.168Z,25.00
2022-08-29T10:46:44.147Z,25.00
2022-08-29T10:49:48.579Z,25.20
2022-08-29T10:52:25.111Z,25.30
2022-08-29T10:55:19.998Z,25.30
2022-08-29T10:58:17.074Z,25.30
2022-08-29T11:01:06.927Z,25.40
2022-08-29T11:03:50.380Z,25.60
2022-08-29T11:06:30.058Z,25.60
2022-08-29T11:09:21.925Z,25.70
2022-08-29T11:12:04.885Z,25.70
2022-08-29T11:14:45.441Z,25.90
2022-08-29T11:17:17.362Z,26.00
2022-08-29T11:20:00.505Z,26.00
2022-08-29T11:22:35.710Z,25.90
2022-08-29T11:25:12.407Z,25.80
2022-08-29T11:28:22.485Z,25.80
2022-08-29T11:31:15.134Z,25.80
2022-08-29T11:33:53.421Z,25.70
2022-08-29T11:36:32.997Z,25.80
2022-08-29T11:39:08.720Z,25.90
2022-08-29T11:41:38.996Z,26.00
2022-08-29T11:44:15.766Z,26.20
2022-08-29T11:46:48.964Z,26.20
2022-08-29T11:49:39.115Z,26.10
2022-08-29T11:52:11.166Z,26.10
2022-08-29T11:54:40.297Z,26.20
2022-08-29T11:57:10.769Z,26.20
2022-08-29T11:59:50.254Z,26.20
2022-08-29T12:02:32.688Z,26.30
2022-08-29T12:05:00.925Z,26.30
2022-08-29T12:07:49.600Z,26.50
2022-08-29T12:10:23.890Z,26.20
2022-08-29T12:12:53.550Z,26.50
2022-08-29T12:15:33.343Z,26.70
2022-08-29T12:18:22.625Z,26.90
2022-08-29T12:20:55.933Z,27.00
2022-08-29T12:23:31.663Z,27.10
2022-08-29T12:26:22.848Z,27.00
2022-08-29T12:29:00.751Z,27.00
2022-08-29T12:32:02.402Z,26.90
2022-08-29T12:34:54.941Z,26.90
2022-08-29T12:37:31.877Z,27.20
2022-08-29T12:40:09.392Z,27.40
2022-08-29T12:42:45.497Z,27.30
2022-08-29T12:45:24.380Z,27.10
2022-08-29T12:47:55.861Z,26.80
2022-08-29T12:50:30.885Z,26.70
2022-08-29T12:53:06.866Z,26.60
2022-08-29T12:55:42.348Z,26.60
2022-08-29T12:58:12.731Z,26.60
2022-08-29T13:00:41.547Z,26.60
2022-08-29T13:03:19.785Z,26.60
2022-08-29T13:05:48.447Z,26.60
2022-08-29T13:08:32.453Z,26.80
2022-08-29T13:11:04.617Z,27.00
2022-08-29T13:13:32.527Z,27.30
2022-08-29T13:16:03.049Z,27.50
2022-08-29T13:18:40.306Z,27.50
2022-08-29T13:21:26.590Z,27.50
2022-08-29T13:23:59.255Z,27.40
2022-08-29T13:26:29.379Z,27.20
2022-08-29T13:29:04.312Z,27.30
2022-08-29T13:31:36.426Z,27.30
2022-08-29T13:34:13.938Z,27.50
2022-08-29T13:36:59.436Z,27.70
2022-08-29T13:39:30.174Z,27.70
2022-08-29T13:42:04.431Z,27.40
2022-08-29T13:44:46.052Z,27.10
2022-08-29T13:47:22.938Z,26.90
2022-08-29T13:49:52.045Z,27.10
2022-08-29T13:52:20.269Z,27.30
2022-08-29T13:54:48.064Z,27.50
2022-08-29T13:57:24.151Z,27.50
2022-08-29T13:59:52.365Z,27.40
2022-08-29T14:02:20.189Z,27.30
2022-08-29T14:04:48.693Z,27.40
2022-08-29T14:07:28.931Z,27.60
2022-08-29T14:09:56.816Z,27.40
2022-08-29T14:12:33.356Z,27.30
2022-08-29T14:15:09.868Z,27.10
2022-08-29T14:17:41.424Z,27.10
2022-08-29T14:20:10.204Z,26.90
2022-08-29T14:22:38.621Z,26.80
2022-08-29T14:25:08.588Z,26.70
2022-08-29T14:27:36.772Z,26.70
2022-08-29T14:30:09.399Z,26.60
2022-08-29T14:32:37.899Z,26.50
2022-08-29T14:35:08.136Z,26.60
2022-08-29T14:37:37.180Z,26.50
2022-08-29T14:40:09.618Z,26.60
2022-08-29T14:42:39.342Z,26.60
2022-08-29T14:45:08.951Z,26.60
2022-08-29T14:47:36.937Z,26.50
2022-08-29T14:50:07.204Z,26.40
2022-08-29T14:52:35.904Z,26.30
2022-08-29T14:55:03.817Z,26.30
2022-08-29T14:57:31.616Z,26.20
2022-08-29T14:59:59.386Z,26.20
2022-08-29T15:02:27.282Z,26.20
2022-08-29T15:04:56.625Z,26.20
2022-08-29T15:07:24.385Z,26.20
2022-08-29T15:09:52.188Z,26.20
2022-08-29T15:12:21.929Z,26.20
2022-08-29T15:14:49.638Z,26.20
2022-08-29T15:17:17.764Z,26.20
2022-08-29T15:20:31.714Z,26.20
2022-08-29T15:22:33.261Z,26.20
2022-08-29T15:25:01.521Z,26.10
2022-08-29T15:27:29.844Z,26.10
2022-08-29T15:29:58.490Z,26.00
2022-08-29T15:32:26.290Z,25.80
2022-08-29T15:34:53.923Z,25.80
2022-08-29T15:37:22.204Z,25.80
2022-08-29T15:39:55.193Z,25.70
2022-08-29T15:42:29.214Z,25.70
2022-08-29T15:44:59.625Z,25.60
2022-08-29T15:47:30.426Z,25.60
2022-08-29T15:49:58.282Z,25.60
2022-08-29T15:52:26.803Z,25.50
2022-08-29T15:54:55.046Z,25.40
2022-08-29T15:57:22.779Z,25.40
2022-08-29T15:59:58.583Z,25.40
2022-08-29T16:02:28.279Z,25.30
2022-08-29T16:04:57.589Z,25.30
2022-08-29T16:07:29.335Z,25.30
2022-08-29T16:10:02.047Z,25.20
2022-08-29T16:12:31.679Z,25.20
2022-08-29T16:15:00.706Z,25.10
2022-08-29T16:17:31.338Z,25.10
2022-08-29T16:20:00.798Z,25.10
2022-08-29T16:22:29.116Z,25.00
2022-08-29T16:24:57.071Z,24.90
2022-08-29T16:27:24.972Z,24.90
2022-08-29T16:29:53.789Z,24.70
2022-08-29T16:32:21.686Z,24.70
2022-08-29T16:34:49.672Z,24.60
2022-08-29T16:37:17.511Z,24.60
2022-08-29T16:39:45.288Z,24.50
2022-08-29T16:42:12.959Z,24.50
2022-08-29T16:44:41.888Z,24.40
2022-08-29T16:47:11.376Z,24.40
2022-08-29T16:49:39.064Z,24.40
2022-08-29T16:52:07.132Z,24.30
2022-08-29T16:54:34.810Z,24.30
2022-08-29T16:57:02.519Z,24.30
2022-08-29T16:59:30.094Z,24.10
2022-08-29T17:01:57.901Z,24.10
2022-08-29T17:04:28.015Z,24.10
2022-08-29T17:06:56.495Z,24.00
2022-08-29T17:09:25.955Z,24.00
2022-08-29T17:11:54.014Z,23.90
2022-08-29T17:14:25.038Z,23.90
2022-08-29T17:16:54.956Z,23.80
2022-08-29T17:19:23.960Z,23.70
2022-08-29T17:21:52.274Z,23.70
2022-08-29T17:24:20.897Z,23.60
2022-08-29T17:26:49.709Z,23.60
2022-08-29T17:29:17.797Z,23.60
2022-08-29T17:31:46.411Z,23.60
2022-08-29T17:34:16.415Z,23.60
2022-08-29T17:36:44.607Z,23.50
2022-08-29T17:39:13.007Z,23.50
2022-08-29T17:41:40.992Z,23.50
2022-08-29T17:44:10.892Z,23.50
2022-08-29T17:46:38.592Z,23.40
2022-08-29T17:49:08.422Z,23.40
2022-08-29T17:51:39.799Z,23.40
2022-08-29T17:54:14.910Z,23.40
2022-08-29T17:56:46.942Z,23.30
2022-08-29T17:59:17.382Z,23.30
2022-08-29T18:01:45.904Z,23.20
2022-08-29T18:04:14.337Z,23.20
2022-08-29T18:06:42.671Z,23.20
2022-08-29T18:09:10.495Z,23.20
2022-08-29T18:11:41.104Z,23.20
2022-08-29T18:14:09.087Z,23.20
2022-08-29T18:16:37.285Z,23.10
2022-08-29T18:19:05.519Z,23.00
2022-08-29T18:21:33.372Z,23.00
2022-08-29T18:24:01.927Z,22.90
2022-08-29T18:26:29.519Z,22.90
2022-08-29T18:28:57.404Z,22.90
2022-08-29T18:31:25.049Z,22.90
2022-08-29T18:34:01.187Z,22.90
2022-08-29T18:36:34.776Z,22.90
2022-08-29T18:39:05.335Z,22.90
2022-08-29T18:41:33.453Z,22.80
2022-08-29T18:44:01.206Z,22.80
2022-08-29T18:46:30.695Z,22.70
2022-08-29T18:48:58.470Z,22.60
2022-08-29T18:51:26.533Z,22.60
2022-08-29T18:53:54.442Z,22.50
2022-08-29T18:56:22.195Z,22.50
2022-08-29T18:58:54.775Z,22.60
2022-08-29T19:01:28.789Z,22.60
2022-08-29T19:03:58.192Z,22.50
2022-08-29T19:06:26.349Z,22.60
2022-08-29T19:08:56.807Z,22.60
2022-08-29T19:11:26.426Z,22.50
2022-08-29T19:13:54.476Z,22.50
2022-08-29T19:16:24.135Z,22.50
2022-08-29T19:18:52.777Z,22.40
2022-08-29T19:21:20.400Z,22.40
2022-08-29T19:23:52.448Z,22.50
2022-08-29T19:26:30.964Z,22.40
2022-08-29T19:29:00.621Z,22.40
2022-08-29T19:31:29.429Z,22.40
2022-08-29T19:33:58.208Z,22.40
2022-08-29T19:36:27.494Z,22.40
2022-08-29T19:38:56.280Z,22.30
2022-08-29T19:41:29.597Z,22.30
2022-08-29T19:43:57.199Z,22.30
2022-08-29T19:46:28.449Z,22.40
2022-08-29T19:48:56.529Z,22.30
2022-08-29T19:51:25.594Z,22.30
2022-08-29T19:53:57.260Z,22.30
2022-08-29T19:56:26.389Z,22.30
2022-08-29T19:58:54.255Z,22.30
2022-08-29T20:01:22.255Z,22.30
2022-08-29T20:03:49.804Z,22.30
2022-08-29T20:06:17.454Z,22.20
2022-08-29T20:08:47.545Z,22.10
2022-08-29T20:11:20.557Z,22.10
2022-08-29T20:13:51.492Z,21.90
2022-08-29T20:16:22.572Z,21.80
2022-08-29T20:18:51.229Z,21.60
2022-08-29T20:21:19.670Z,21.70
2022-08-29T20:23:49.166Z,21.70
2022-08-29T20:26:20.430Z,21.70
2022-08-29T20:28:49.614Z,21.70
2022-08-29T20:31:18.164Z,21.70
2022-08-29T20:33:47.661Z,21.70
2022-08-29T20:36:38.900Z,21.70
2022-08-29T20:39:09.021Z,21.70
2022-08-29T20:41:36.682Z,21.60
2022-08-29T20:44:07.880Z,21.40
2022-08-29T20:46:40.844Z,21.40
2022-08-29T20:49:10.538Z,21.50
2022-08-29T20:51:39.265Z,21.70
2022-08-29T20:54:07.754Z,21.70
2022-08-29T20:56:35.413Z,21.70
2022-08-29T20:59:02.929Z,21.70
2022-08-29T21:01:30.577Z,21.80
2022-08-29T21:04:20.922Z,21.80
2022-08-29T21:06:53.473Z,21.80
2022-08-29T21:09:22.757Z,21.70
2022-08-29T21:11:51.856Z,21.70
2022-08-29T21:14:22.659Z,21.60
2022-08-29T21:16:51.656Z,21.60
2022-08-29T21:19:19.348Z,21.60
2022-08-29T21:21:47.080Z,21.50
2022-08-29T21:24:16.004Z,21.50
2022-08-29T21:26:45.089Z,21.50
2022-08-29T21:29:12.513Z,21.50
2022-08-29T21:31:40.086Z,21.50
2022-08-29T21:34:10.789Z,21.50
2022-08-29T21:36:39.348Z,21.50
2022-08-29T21:39:09.601Z,21.50
2022-08-29T21:41:43.648Z,21.40
2022-08-29T21:44:13.087Z,21.50
2022-08-29T21:46:44.605Z,21.50
2022-08-29T21:49:17.313Z,21.40
2022-08-29T21:51:46.221Z,21.30
2022-08-29T21:54:15.552Z,21.20
2022-08-29T21:56:43.872Z,21.30
2022-08-29T21:59:12.451Z,21.30
2022-08-29T22:01:41.097Z,21.20
2022-08-29T22:04:19.197Z,21.20
2022-08-29T22:06:55.704Z,21.20
2022-08-29T22:09:23.519Z,21.20
2022-08-29T22:11:52.137Z,21.10
2022-08-29T22:14:42.854Z,21.00
2022-08-29T22:17:10.486Z,20.90
2022-08-29T22:19:38.052Z,20.80
2022-08-29T22:22:06.453Z,20.90
2022-08-29T22:24:33.945Z,20.90
2022-08-29T22:27:01.748Z,20.90
2022-08-29T22:29:29.149Z,20.90
2022-08-29T22:31:57.277Z,20.80
2022-08-29T22:34:26.384Z,20.70
2022-08-29T22:36:54.123Z,20.80
2022-08-29T22:39:21.665Z,20.80
2022-08-29T22:41:49.263Z,20.80
2022-08-29T22:44:59.995Z,20.80
2022-08-29T22:47:04.480Z,20.70
2022-08-29T22:49:33.241Z,20.80
2022-08-29T22:52:01.586Z,20.80
2022-08-29T22:54:38.045Z,20.80
2022-08-29T22:57:14.424Z,20.80
2022-08-29T22:59:43.237Z,20.80
2022-08-29T23:02:12.407Z,20.80
2022-08-29T23:04:40.325Z,20.80
2022-08-29T23:07:09.151Z,20.60
2022-08-29T23:09:43.598Z,20.80
2022-08-29T23:12:12.974Z,20.70
2022-08-29T23:14:42.527Z,20.70
2022-08-29T23:17:10.577Z,20.80
2022-08-29T23:19:38.428Z,20.70
2022-08-29T23:22:10.487Z,20.80
2022-08-29T23:24:39.509Z,20.70
2022-08-29T23:27:09.161Z,20.50
2022-08-29T23:29:41.957Z,20.40
2022-08-29T23:32:10.085Z,20.30
2022-08-29T23:34:37.562Z,20.30
2022-08-29T23:37:05.128Z,20.30
2022-08-29T23:39:32.668Z,20.00
2022-08-29T23:42:00.335Z,19.80
2022-08-29T23:44:27.833Z,19.60
2022-08-29T23:46:56.961Z,19.30
2022-08-29T23:49:24.667Z,19.10
2022-08-29T23:51:52.333Z,19.30
2022-08-29T23:54:19.798Z,19.50
2022-08-29T23:56:47.413Z,19.60
2022-08-29T23:59:34.762Z,19.60
